createdAt,value
2023-03-22T00:01:17.786Z,70.79
2023-03-22T00:03:45.689Z,70.79
2023-03-22T00:06:14.088Z,70.53
2023-03-22T00:08:41.833Z,70.53
2023-03-22T00:11:09.686Z,70.74
2023-03-22T00:13:37.939Z,71.23
2023-03-22T00:16:07.962Z,72.70
2023-03-22T00:18:35.865Z,74.43
2023-03-22T00:21:03.970Z,74.50
2023-03-22T00:23:31.939Z,74.53
2023-03-22T00:25:59.537Z,75.63
2023-03-22T00:28:27.291Z,76.77
2023-03-22T00:30:56.812Z,76.47
2023-03-22T00:33:30.078Z,78.38
2023-03-22T00:36:00.721Z,78.18
2023-03-22T00:38:44.995Z,78.47
2023-03-22T00:41:14.602Z,78.98
2023-03-22T00:43:42.459Z,79.12
2023-03-22T00:46:10.769Z,79.80
2023-03-22T00:48:40.670Z,79.38
2023-03-22T00:51:09.789Z,78.87
2023-03-22T00:53:42.330Z,78.80
2023-03-22T00:56:13.641Z,79.26
2023-03-22T00:58:46.456Z,79.36
2023-03-22T01:01:15.164Z,79.21
2023-03-22T01:03:49.960Z,79.08
2023-03-22T01:06:17.865Z,78.44
2023-03-22T01:08:46.608Z,77.73
2023-03-22T01:11:18.152Z,77.27
2023-03-22T01:13:48.085Z,76.03
2023-03-22T01:16:15.775Z,75.79
2023-03-22T01:18:45.087Z,75.38
2023-03-22T01:21:13.405Z,75.12
2023-03-22T01:23:41.608Z,74.45
2023-03-22T01:26:09.240Z,74.50
2023-03-22T01:28:37.614Z,74.74
2023-03-22T01:31:05.675Z,75.00
2023-03-22T01:33:33.457Z,74.12
2023-03-22T01:36:02.450Z,74.89
2023-03-22T01:38:31.007Z,74.95
2023-03-22T01:41:00.893Z,75.75
2023-03-22T01:43:32.173Z,76.63
2023-03-22T01:46:00.516Z,78.30
2023-03-22T01:48:34.481Z,78.44
2023-03-22T01:51:09.220Z,78.66
2023-03-22T01:54:01.540Z,79.23
2023-03-22T01:56:32.518Z,79.46
2023-03-22T01:59:01.701Z,79.78
2023-03-22T02:01:40.815Z,80.05
2023-03-22T02:04:12.244Z,79.97
2023-03-22T02:06:42.328Z,80.22
2023-03-22T02:09:18.322Z,79.91
2023-03-22T02:11:53.399Z,79.91
2023-03-22T02:14:39.738Z,80.24
2023-03-22T02:17:35.977Z,79.93
2023-03-22T02:20:31.386Z,80.07
2023-03-22T02:23:34.133Z,80.00
2023-03-22T02:26:39.186Z,79.59
2023-03-22T02:29:14.089Z,80.37
2023-03-22T02:32:11.633Z,80.12
2023-03-22T02:35:06.330Z,79.91
2023-03-22T02:38:23.146Z,79.87
2023-03-22T02:40:56.193Z,79.53
2023-03-22T02:43:38.280Z,79.70
2023-03-22T02:46:11.039Z,79.53
2023-03-22T02:48:44.080Z,79.84
2023-03-22T02:51:18.519Z,79.82
2023-03-22T02:53:51.991Z,79.42
2023-03-22T02:56:25.395Z,79.96
2023-03-22T02:58:56.457Z,79.43
2023-03-22T03:01:28.503Z,79.76
2023-03-22T03:04:01.057Z,79.68
2023-03-22T03:06:33.651Z,79.48
2023-03-22T03:09:04.988Z,79.86
2023-03-22T03:11:34.404Z,79.84
2023-03-22T03:14:02.168Z,80.05
2023-03-22T03:16:35.036Z,80.01
2023-03-22T03:19:11.772Z,79.44
2023-03-22T03:21:48.150Z,79.55
2023-03-22T03:24:24.230Z,79.08
2023-03-22T03:27:01.592Z,79.41
2023-03-22T03:29:38.841Z,79.10
2023-03-22T03:32:11.099Z,79.36
2023-03-22T03:34:49.823Z,79.57
2023-03-22T03:37:21.896Z,79.61
2023-03-22T03:39:55.593Z,79.26
2023-03-22T03:42:28.305Z,78.34
2023-03-22T03:44:57.270Z,77.52
2023-03-22T03:47:26.431Z,77.44
2023-03-22T03:49:54.196Z,78.13
2023-03-22T03:52:24.605Z,79.51
2023-03-22T03:54:52.696Z,80.74
2023-03-22T03:57:28.628Z,80.41
2023-03-22T03:59:56.400Z,80.66
2023-03-22T04:02:41.477Z,80.47
2023-03-22T04:05:17.282Z,80.14
2023-03-22T04:07:45.121Z,80.62
2023-03-22T04:10:13.386Z,80.23
2023-03-22T04:12:42.891Z,80.56
2023-03-22T04:15:17.131Z,81.07
2023-03-22T04:17:49.469Z,81.64
2023-03-22T04:20:18.759Z,82.00
2023-03-22T04:22:48.410Z,82.23
2023-03-22T04:25:18.187Z,82.36
2023-03-22T04:27:57.337Z,82.45
2023-03-22T04:30:27.586Z,82.25
2023-03-22T04:33:15.221Z,81.65
2023-03-22T04:36:02.492Z,81.68
2023-03-22T04:38:37.315Z,81.80
2023-03-22T04:41:05.554Z,81.48
2023-03-22T04:43:39.746Z,81.37
2023-03-22T04:46:12.595Z,80.69
2023-03-22T04:48:47.311Z,80.42
2023-03-22T04:51:15.426Z,80.52
2023-03-22T04:54:00.347Z,80.22
2023-03-22T04:56:28.089Z,80.18
2023-03-22T04:58:57.253Z,80.38
2023-03-22T05:01:25.100Z,80.29
2023-03-22T05:04:02.118Z,80.10
2023-03-22T05:06:32.628Z,80.12
2023-03-22T05:09:08.078Z,80.28
2023-03-22T05:11:36.307Z,80.12
2023-03-22T05:14:23.961Z,80.26
2023-03-22T05:16:52.078Z,80.85
2023-03-22T05:19:22.315Z,81.20
2023-03-22T05:21:58.683Z,81.57
2023-03-22T05:24:39.366Z,81.23
2023-03-22T05:27:11.024Z,81.74
2023-03-22T05:29:45.022Z,81.38
2023-03-22T05:32:25.483Z,82.15
2023-03-22T05:34:54.784Z,82.05
2023-03-22T05:37:30.070Z,82.69
2023-03-22T05:39:59.868Z,82.39
2023-03-22T05:42:36.427Z,82.41
2023-03-22T05:45:15.270Z,82.51
2023-03-22T05:47:45.797Z,81.95
2023-03-22T05:50:20.290Z,82.05
2023-03-22T05:52:50.451Z,81.29
2023-03-22T05:55:24.210Z,80.61
2023-03-22T05:57:56.710Z,80.50
2023-03-22T06:00:31.857Z,80.16
2023-03-22T06:03:18.500Z,80.34
2023-03-22T06:05:54.656Z,80.66
2023-03-22T06:08:30.804Z,80.75
2023-03-22T06:10:59.490Z,80.87
2023-03-22T06:13:27.444Z,81.07
2023-03-22T06:15:57.522Z,80.81
2023-03-22T06:18:26.666Z,81.07
2023-03-22T06:21:02.741Z,81.34
2023-03-22T06:23:30.565Z,81.16
2023-03-22T06:25:58.183Z,81.07
2023-03-22T06:28:29.873Z,80.99
2023-03-22T06:31:07.358Z,81.06
2023-03-22T06:33:55.899Z,81.12
2023-03-22T06:36:32.386Z,80.84
2023-03-22T06:39:13.219Z,80.84
2023-03-22T06:41:44.314Z,81.38
2023-03-22T06:44:12.428Z,82.52
2023-03-22T06:47:01.684Z,82.34
2023-03-22T06:49:46.881Z,81.88
2023-03-22T06:52:20.972Z,81.91
2023-03-22T06:54:48.594Z,81.52
2023-03-22T06:57:16.479Z,81.06
2023-03-22T06:59:44.173Z,80.82
2023-03-22T07:02:14.033Z,80.60
2023-03-22T07:04:48.401Z,80.38
2023-03-22T07:07:16.380Z,79.79
2023-03-22T07:09:44.028Z,79.57
2023-03-22T07:12:13.380Z,79.11
2023-03-22T07:14:41.337Z,75.59
2023-03-22T07:17:23.311Z,74.08
2023-03-22T07:19:51.073Z,72.45
2023-03-22T07:22:22.138Z,71.37
2023-03-22T07:24:57.621Z,70.47
2023-03-22T07:27:28.463Z,69.08
2023-03-22T07:29:56.729Z,68.28
2023-03-22T07:32:25.990Z,68.03
2023-03-22T07:35:04.532Z,67.68
2023-03-22T07:37:32.290Z,66.92
2023-03-22T07:39:59.932Z,66.30
2023-03-22T07:42:31.326Z,65.78
2023-03-22T07:45:28.272Z,66.94
2023-03-22T07:48:16.594Z,66.33
2023-03-22T07:50:58.566Z,66.42
2023-03-22T07:53:27.789Z,66.39
2023-03-22T07:55:55.596Z,65.39
2023-03-22T07:58:23.350Z,65.10
2023-03-22T08:00:51.214Z,66.11
2023-03-22T08:03:49.606Z,64.76
2023-03-22T08:06:47.410Z,64.54
2023-03-22T08:09:15.170Z,65.87
2023-03-22T08:11:42.830Z,63.67
2023-03-22T08:14:11.036Z,63.91
2023-03-22T08:16:41.538Z,62.20
2023-03-22T08:19:10.788Z,61.99
2023-03-22T08:21:39.329Z,60.85
2023-03-22T08:24:14.160Z,61.04
2023-03-22T08:26:50.635Z,61.71
2023-03-22T08:29:28.870Z,59.54
2023-03-22T08:32:02.012Z,59.17
2023-03-22T08:34:31.634Z,58.53
2023-03-22T08:36:59.233Z,59.43
2023-03-22T08:39:27.244Z,59.97
2023-03-22T08:42:07.070Z,60.16
2023-03-22T08:44:36.897Z,58.79
2023-03-22T08:47:06.580Z,55.91
2023-03-22T08:49:36.454Z,58.26
2023-03-22T08:52:11.938Z,58.48
2023-03-22T08:55:03.163Z,57.67
2023-03-22T08:57:50.486Z,55.42
2023-03-22T09:00:42.252Z,54.55
2023-03-22T09:03:19.027Z,56.09
2023-03-22T09:05:48.231Z,56.12
2023-03-22T09:08:19.470Z,57.50
2023-03-22T09:10:52.200Z,56.16
2023-03-22T09:13:22.680Z,54.79
2023-03-22T09:15:55.658Z,55.46
2023-03-22T09:18:26.962Z,54.02
2023-03-22T09:20:59.060Z,55.51
2023-03-22T09:23:34.189Z,56.26
2023-03-22T09:26:03.699Z,53.67
2023-03-22T09:28:32.918Z,53.48
2023-03-22T09:31:07.304Z,52.83
2023-03-22T09:33:36.767Z,53.61
2023-03-22T09:36:07.038Z,52.56
2023-03-22T09:38:36.347Z,52.66
2023-03-22T09:41:08.031Z,52.67
2023-03-22T09:43:40.952Z,53.37
2023-03-22T09:46:14.996Z,52.14
2023-03-22T09:48:44.165Z,51.57
2023-03-22T09:51:28.763Z,50.48
2023-03-22T09:53:56.490Z,52.74
2023-03-22T09:56:26.735Z,50.32
2023-03-22T09:59:00.268Z,50.09
2023-03-22T10:01:37.259Z,49.12
2023-03-22T10:04:26.240Z,48.90
2023-03-22T10:07:07.833Z,49.26
2023-03-22T10:09:46.080Z,48.66
2023-03-22T10:12:21.509Z,48.95
2023-03-22T10:14:52.401Z,50.39
2023-03-22T10:17:26.362Z,49.12
2023-03-22T10:19:58.048Z,49.90
2023-03-22T10:22:31.855Z,49.41
2023-03-22T10:25:01.884Z,47.13
2023-03-22T10:27:30.983Z,48.84
2023-03-22T10:30:03.994Z,51.39
2023-03-22T10:32:54.685Z,50.56
2023-03-22T10:35:24.422Z,51.99
2023-03-22T10:37:55.652Z,51.71
2023-03-22T10:40:27.187Z,50.68
2023-03-22T10:42:57.829Z,49.51
2023-03-22T10:45:27.277Z,51.58
2023-03-22T10:48:00.810Z,49.55
2023-03-22T10:50:33.042Z,47.16
2023-03-22T10:53:05.541Z,48.26
2023-03-22T10:55:33.599Z,48.65
2023-03-22T10:58:13.281Z,49.52
2023-03-22T11:00:47.197Z,47.64
2023-03-22T11:03:28.417Z,49.02
2023-03-22T11:06:01.501Z,51.32
2023-03-22T11:08:30.536Z,49.04
2023-03-22T11:11:00.278Z,48.97
2023-03-22T11:13:28.783Z,46.92
2023-03-22T11:16:02.171Z,48.00
2023-03-22T11:18:32.634Z,45.32
2023-03-22T11:21:05.386Z,48.05
2023-03-22T11:23:38.555Z,48.12
2023-03-22T11:26:10.428Z,46.75
2023-03-22T11:28:42.950Z,45.66
2023-03-22T11:31:12.532Z,46.67
2023-03-22T11:33:54.488Z,46.95
2023-03-22T11:36:23.021Z,47.44
2023-03-22T11:38:58.493Z,47.05
2023-03-22T11:41:28.274Z,47.00
2023-03-22T11:43:59.348Z,46.93
2023-03-22T11:46:27.075Z,48.92
2023-03-22T11:49:01.113Z,47.55
2023-03-22T11:51:33.501Z,46.94
2023-03-22T11:54:07.828Z,45.64
2023-03-22T11:56:36.056Z,47.00
2023-03-22T11:59:07.811Z,46.62
2023-03-22T12:01:39.924Z,45.62
2023-03-22T12:04:12.094Z,47.57
2023-03-22T12:06:42.080Z,44.68
2023-03-22T12:09:23.209Z,46.09
2023-03-22T12:11:54.103Z,46.50
2023-03-22T12:14:25.834Z,42.57
2023-03-22T12:16:58.415Z,43.71
2023-03-22T12:19:42.833Z,44.36
2023-03-22T12:22:13.821Z,45.67
2023-03-22T12:24:43.182Z,46.83
2023-03-22T12:27:18.171Z,43.44
2023-03-22T12:29:52.506Z,44.64
2023-03-22T12:32:26.241Z,44.36
2023-03-22T12:35:01.378Z,43.56
2023-03-22T12:37:40.298Z,46.21
2023-03-22T12:40:21.650Z,42.10
2023-03-22T12:43:00.379Z,42.53
2023-03-22T12:45:32.751Z,44.58
2023-03-22T12:48:07.086Z,46.16
2023-03-22T12:50:38.657Z,45.36
2023-03-22T12:53:06.953Z,46.39
2023-03-22T12:55:39.833Z,46.12
2023-03-22T12:58:08.952Z,44.01
2023-03-22T13:00:41.655Z,45.10
2023-03-22T13:03:24.196Z,44.71
2023-03-22T13:06:01.837Z,44.51
2023-03-22T13:09:13.098Z,42.74
2023-03-22T13:11:41.087Z,44.53
2023-03-22T13:14:08.915Z,44.26
2023-03-22T13:16:51.959Z,45.19
2023-03-22T13:19:30.352Z,43.32
2023-03-22T13:22:20.976Z,44.66
2023-03-22T13:25:17.081Z,44.38
2023-03-22T13:27:53.820Z,43.08
2023-03-22T13:30:26.967Z,42.41
2023-03-22T13:32:58.210Z,41.73
2023-03-22T13:35:28.679Z,41.18
2023-03-22T13:38:02.866Z,42.87
2023-03-22T13:40:37.718Z,43.07
2023-03-22T13:43:14.392Z,42.47
2023-03-22T13:46:03.474Z,44.67
2023-03-22T13:48:41.044Z,45.39
2023-03-22T13:51:13.133Z,44.61
2023-03-22T13:53:45.720Z,42.41
2023-03-22T13:56:15.480Z,41.48
2023-03-22T13:58:53.895Z,43.67
2023-03-22T14:01:29.596Z,41.85
2023-03-22T14:04:01.316Z,41.30
2023-03-22T14:06:33.650Z,41.26
2023-03-22T14:09:06.104Z,39.79
2023-03-22T14:11:44.974Z,39.46
2023-03-22T14:14:17.005Z,41.53
2023-03-22T14:16:48.099Z,40.39
2023-03-22T14:19:21.169Z,40.64
